Arabi, Louisiana
Current Conditions -  °F | °C
As of 10:15 AM on Friday 19 Dec 2014 (Local Time) from KVSH Reporting Station
Overcast Overcast  
Wind Chill: 57°   Ceiling: 3600
Heat Index: 57°   Visibility: 10mi
Dew Point: 48°   Wind: 12mph
Humidity: 72%   Direction: 50°NE
Pressure: 30.13"   Gusts: 16mph
Location:  29.95°N, 90.01°W
Report Text: KVSH 191615Z AUTO 05010G14KT 10SM FEW010 BKN036 OVC090 14/09 A3013 RMK AO1
Loading
Personal Weather Stations






























Interactive Weather Map New forecast layout! Learn more

10-Day Weather Forecast

Advertisements
Track Severe Weather on mobile